This is the latest recevied weather packets stored in our database for station/object N8ESC. If no packets are shown the sender has not sent any weather packets the latest 10 day(s).
| Time | Temp. | Humidity | Pressure | Rain* | Wind** | Luminosity | Snow |
|---|---|---|---|---|---|---|---|
| 1777746208 | 8.89° C | 51% | 1014.3 hPa | 0 mm | - | 793 W/m² | - |
| 1777745905 | 8.33° C | 54% | 1014.2 hPa | 0 mm | - | 345 W/m² | - |
| 1777745604 | 9.44° C | 52% | 1014.4 hPa | 0 mm | - | 345 W/m² | - |
| 1777745301 | 8.89° C | 50% | 1014.3 hPa | 0 mm | - | 718 W/m² | - |
| 1777744998 | 10° C | 51% | 1014.5 hPa | 0 mm | - | 790 W/m² | - |
| 1777744694 | 8.89° C | 54% | 1014.5 hPa | 0 mm | - | 808 W/m² | - |
| 1777744388 | 8.33° C | 57% | 1014.5 hPa | 0 mm | - | 835 W/m² | - |
| 1777744086 | 8.89° C | 55% | 1014.5 hPa | 0 mm | - | 779 W/m² | - |
| 1777743782 | 7.78° C | 60% | 1014.7 hPa | 0 mm | - | 767 W/m² | - |
| 1777743479 | 8.33° C | 60% | 1014.8 hPa | 0 mm | - | 462 W/m² | - |
| 1777743176 | 8.33° C | 61% | 1014.8 hPa | 0 mm | - | 794 W/m² | - |
| 1777742875 | 7.78° C | 60% | 1014.8 hPa | 0 mm | - | 269 W/m² | - |
| 1777742570 | 7.78° C | 59% | 1015 hPa | 0 mm | - | 745 W/m² | - |
| 1777742266 | 7.78° C | 59% | 1014.9 hPa | 0 mm | - | 596 W/m² | - |
| 1777741964 | 8.33° C | 59% | 1015.1 hPa | 0 mm | - | 767 W/m² | - |
| 1777741660 | 8.89° C | 56% | 1015.1 hPa | 0 mm | - | 739 W/m² | - |
| 1777741357 | 8.33° C | 54% | 1015.2 hPa | 0 mm | - | 726 W/m² | - |
| 1777741053 | 8.89° C | 54% | 1015.2 hPa | 0 mm | - | 732 W/m² | - |
| 1777740750 | 8.89° C | 55% | 1015.4 hPa | 0 mm | - | 742 W/m² | - |
| 1777740446 | 8.89° C | 54% | 1015.2 hPa | 0 mm | - | 752 W/m² | - |
| 1777740145 | 7.78° C | 55% | 1015.4 hPa | 0 mm | - | 728 W/m² | - |
| 1777739840 | 8.33° C | 53% | 1015.2 hPa | 0 mm | - | 724 W/m² | - |
| 1777739537 | 7.78° C | 58% | 1015.5 hPa | 0 mm | - | 713 W/m² | - |
| 1777739234 | 8.33° C | 56% | 1015.6 hPa | 0 mm | - | 490 W/m² | - |
| 1777738930 | 8.33° C | 58% | 1015.7 hPa | 0 mm | - | 745 W/m² | - |
* Rain latest hour (hover to see other rain measurements)
** Current wind speed in m/s (hover to see current wind gust speed)